Time,TemperatureF,DewpointF,PressureIn,WindDirection,WindDirectionDegrees,WindSpeedMPH,WindSpeedGustMPH,Humidity,HourlyPrecipIn,Conditions,Clouds,dailyrainin,SoftwareType,DateUTC
2013-09-28 00:01:00,60.7,54.0,30.18,NW,304,3.0,11.0,79,0.00,,,0.01,weatherlink.com 1.10,2013-09-28 04:01:00,
2013-09-28 00:16:00,60.5,54.0,30.17,SE,124,6.0,9.0,80,0.00,,,0.01,weatherlink.com 1.10,2013-09-28 04:16:00,
2013-09-28 00:31:00,60.2,55.0,30.17,SE,141,2.0,8.0,82,0.00,,,0.01,weatherlink.com 1.10,2013-09-28 04:31:00,
2013-09-28 00:46:00,59.4,54.0,30.17,SE,143,4.0,7.0,83,0.00,,,0.01,weatherlink.com 1.10,2013-09-28 04:46:00,
2013-09-28 01:01:00,58.6,54.0,30.18,WSW,255,4.0,5.0,85,0.00,,,0.01,weatherlink.com 1.10,2013-09-28 05:01:00,
2013-09-28 01:16:00,58.1,54.0,30.18,SE,144,3.0,7.0,87,0.00,,,0.01,weatherlink.com 1.10,2013-09-28 05:16:00,
2013-09-28 01:31:00,57.6,54.0,30.18,SW,225,2.0,5.0,88,0.00,,,0.00,weatherlink.com 1.10,2013-09-28 05:31:00,
2013-09-28 01:46:00,57.1,54.0,30.18,SW,232,1.0,4.0,89,0.00,,,0.00,weatherlink.com 1.10,2013-09-28 05:46:00,
2013-09-28 02:01:00,56.9,54.0,30.18,WSW,251,1.0,5.0,90,0.00,,,0.00,weatherlink.com 1.10,2013-09-28 06:01:00,
2013-09-28 02:16:00,56.6,54.0,30.18,SW,215,1.0,4.0,90,0.00,,,0.00,weatherlink.com 1.10,2013-09-28 06:16:00,
2013-09-28 02:31:00,56.3,54.0,30.18,SSW,193,0.0,4.0,91,0.00,,,0.00,weatherlink.com 1.10,2013-09-28 06:31:00,
2013-09-28 02:46:00,56.3,54.0,30.18,ESE,115,1.0,4.0,92,0.00,,,0.00,weatherlink.com 1.10,2013-09-28 06:46:00,
2013-09-28 03:01:00,56.8,54.0,30.18,SE,125,0.0,3.0,91,0.00,,,0.00,weatherlink.com 1.10,2013-09-28 07:01:00,
2013-09-28 03:16:00,56.2,54.0,30.17,SSE,155,0.0,3.0,92,0.00,,,0.00,weatherlink.com 1.10,2013-09-28 07:16:00,
2013-09-28 03:31:00,56.2,54.0,30.17,SE,134,1.0,3.0,93,0.00,,,0.00,weatherlink.com 1.10,2013-09-28 07:31:00,
2013-09-28 03:46:00,56.9,55.0,30.17,SE,142,3.0,4.0,93,0.00,,,0.00,weatherlink.com 1.10,2013-09-28 07:46:00,
2013-09-28 04:01:00,57.1,55.0,30.18,SSE,163,3.0,5.0,93,0.00,,,0.00,weatherlink.com 1.10,2013-09-28 08:01:00,
2013-09-28 04:16:00,56.9,55.0,30.18,SSE,160,3.0,5.0,93,0.00,,,0.00,weatherlink.com 1.10,2013-09-28 08:16:00,
2013-09-28 04:31:00,56.9,55.0,30.18,SE,136,2.0,5.0,94,0.00,,,0.00,weatherlink.com 1.10,2013-09-28 08:31:00,
2013-09-28 04:46:00,57.1,55.0,30.18,South,183,3.0,6.0,94,0.00,,,0.00,weatherlink.com 1.10,2013-09-28 08:46:00,
2013-09-28 05:01:00,56.9,55.0,30.18,SE,143,3.0,6.0,94,0.00,,,0.00,weatherlink.com 1.10,2013-09-28 09:01:00,
2013-09-28 05:16:00,56.7,55.0,30.17,SSE,164,5.0,6.0,93,0.00,,,0.00,weatherlink.com 1.10,2013-09-28 09:16:00,
2013-09-28 05:31:00,56.4,55.0,30.18,SE,143,4.0,7.0,93,0.00,,,0.00,weatherlink.com 1.10,2013-09-28 09:31:00,
2013-09-28 05:46:00,55.9,54.0,30.18,SE,127,4.0,8.0,93,0.00,,,0.00,weatherlink.com 1.10,2013-09-28 09:46:00,
2013-09-28 06:01:00,55.5,54.0,30.18,SSE,155,4.0,8.0,94,0.00,,,0.00,weatherlink.com 1.10,2013-09-28 10:01:00,
2013-09-28 06:16:00,54.7,53.0,30.17,SSE,150,1.0,14.0,95,0.00,,,0.00,weatherlink.com 1.10,2013-09-28 10:16:00,
2013-09-28 06:31:00,54.4,53.0,30.17,SSW,195,4.0,8.0,96,0.00,,,0.00,weatherlink.com 1.10,2013-09-28 10:31:00,
2013-09-28 06:46:00,54.5,54.0,30.17,SE,141,4.0,8.0,97,0.00,,,0.00,weatherlink.com 1.10,2013-09-28 10:46:00,
2013-09-28 07:01:00,54.6,54.0,30.17,WSW,238,6.0,10.0,97,0.00,,,0.00,weatherlink.com 1.10,2013-09-28 11:01:00,
2013-09-28 07:16:00,54.9,54.0,30.17,SSW,208,4.0,10.0,98,0.00,,,0.00,weatherlink.com 1.10,2013-09-28 11:16:00,
2013-09-28 07:31:00,55.4,55.0,30.17,South,172,2.0,9.0,98,0.00,,,0.00,weatherlink.com 1.10,2013-09-28 11:31:00,
2013-09-28 07:46:00,55.8,55.0,30.18,SW,229,3.0,9.0,98,0.00,,,0.00,weatherlink.com 1.10,2013-09-28 11:46:00,
2013-09-28 08:01:00,56.1,56.0,30.18,SSE,167,6.0,11.0,98,0.00,,,0.00,weatherlink.com 1.10,2013-09-28 12:01:00,
2013-09-28 08:16:00,56.3,56.0,30.17,SSW,197,8.0,10.0,98,0.00,,,0.00,weatherlink.com 1.10,2013-09-28 12:16:00,
2013-09-28 08:32:00,56.6,56.0,30.17,SSW,211,4.0,9.0,98,0.00,,,0.00,weatherlink.com 1.10,2013-09-28 12:32:00,
2013-09-28 08:47:00,56.9,56.0,30.17,SSE,151,2.0,8.0,98,0.00,,,0.00,weatherlink.com 1.10,2013-09-28 12:47:00,
2013-09-28 09:02:00,57.9,57.0,30.17,SE,142,1.0,8.0,97,0.00,,,0.00,weatherlink.com 1.10,2013-09-28 13:02:00,
2013-09-28 09:17:00,59.8,58.0,30.17,WSW,257,0.0,9.0,93,0.00,,,0.00,weatherlink.com 1.10,2013-09-28 13:17:00,
2013-09-28 09:32:00,61.3,58.0,30.17,SSE,155,2.0,10.0,90,0.00,,,0.00,weatherlink.com 1.10,2013-09-28 13:32:00,
2013-09-28 09:47:00,63.0,59.0,30.17,SW,233,1.0,6.0,87,0.00,,,0.00,weatherlink.com 1.10,2013-09-28 13:47:00,
2013-09-28 10:02:00,63.3,59.0,30.17,SE,131,7.0,8.0,85,0.00,,,0.00,weatherlink.com 1.10,2013-09-28 14:02:00,
2013-09-28 10:17:00,64.3,59.0,30.16,SSE,160,3.0,9.0,83,0.00,,,0.00,weatherlink.com 1.10,2013-09-28 14:17:00,
2013-09-28 10:32:00,65.9,60.0,30.16,SE,146,5.0,7.0,80,0.00,,,0.00,weatherlink.com 1.10,2013-09-28 14:32:00,
2013-09-28 10:47:00,67.2,59.0,30.16,SSE,158,2.0,9.0,76,0.00,,,0.00,weatherlink.com 1.10,2013-09-28 14:47:00,
2013-09-28 11:02:00,68.6,60.0,30.16,SSW,206,2.0,8.0,73,0.00,,,0.00,weatherlink.com 1.10,2013-09-28 15:02:00,
2013-09-28 11:17:00,69.4,60.0,30.15,SE,141,4.0,7.0,71,0.00,,,0.00,weatherlink.com 1.10,2013-09-28 15:17:00,
2013-09-28 11:32:00,70.1,59.0,30.14,SE,132,4.0,8.0,67,0.00,,,0.00,weatherlink.com 1.10,2013-09-28 15:32:00,
2013-09-28 11:47:00,70.7,58.0,30.14,SSE,166,7.0,12.0,65,0.00,,,0.00,weatherlink.com 1.10,2013-09-28 15:47:00,
2013-09-28 12:02:00,71.9,59.0,30.13,ESE,113,1.0,10.0,64,0.00,,,0.00,weatherlink.com 1.10,2013-09-28 16:02:00,
2013-09-28 12:17:00,72.7,57.0,30.12,SSE,155,3.0,11.0,58,0.00,,,0.00,weatherlink.com 1.10,2013-09-28 16:17:00,
2013-09-28 12:32:00,73.8,57.0,30.12,West,265,5.0,13.0,57,0.00,,,0.00,weatherlink.com 1.10,2013-09-28 16:32:00,
2013-09-28 12:47:00,74.1,57.0,30.11,West,270,3.0,9.0,56,0.00,,,0.00,weatherlink.com 1.10,2013-09-28 16:47:00,
2013-09-28 13:03:00,74.9,56.0,30.10,South,174,4.0,12.0,52,0.00,,,0.00,weatherlink.com 1.10,2013-09-28 17:03:00,
2013-09-28 13:18:00,75.1,56.0,30.10,SW,219,4.0,11.0,51,0.00,,,0.00,weatherlink.com 1.10,2013-09-28 17:18:00,
2013-09-28 13:33:00,75.1,55.0,30.09,ESE,112,7.0,13.0,50,0.00,,,0.00,weatherlink.com 1.10,2013-09-28 17:33:00,
2013-09-28 13:48:00,76.3,56.0,30.08,SSE,159,6.0,9.0,49,0.00,,,0.00,weatherlink.com 1.10,2013-09-28 17:48:00,
2013-09-28 14:03:00,76.3,55.0,30.07,SSE,162,6.0,10.0,48,0.00,,,0.00,weatherlink.com 1.10,2013-09-28 18:03:00,
2013-09-28 14:18:00,76.5,55.0,30.06,SE,134,6.0,9.0,48,0.00,,,0.00,weatherlink.com 1.10,2013-09-28 18:18:00,
2013-09-28 14:33:00,76.7,55.0,30.05,SW,228,2.0,7.0,48,0.00,,,0.00,weatherlink.com 1.10,2013-09-28 18:33:00,
2013-09-28 14:48:00,76.2,54.0,30.04,SSE,152,7.0,14.0,47,0.00,,,0.00,weatherlink.com 1.10,2013-09-28 18:48:00,
2013-09-28 15:03:00,76.2,54.0,30.03,SE,124,10.0,16.0,47,0.00,,,0.00,weatherlink.com 1.10,2013-09-28 19:03:00,
2013-09-28 15:18:00,76.8,54.0,30.03,ESE,104,5.0,11.0,45,0.00,,,0.00,weatherlink.com 1.10,2013-09-28 19:18:00,
2013-09-28 15:33:00,77.5,54.0,30.02,SE,134,8.0,13.0,44,0.00,,,0.00,weatherlink.com 1.10,2013-09-28 19:33:00,
2013-09-28 15:48:00,77.8,55.0,30.01,South,169,1.0,13.0,46,0.00,,,0.00,weatherlink.com 1.10,2013-09-28 19:48:00,
2013-09-28 16:03:00,78.0,54.0,30.01,SSE,153,2.0,10.0,44,0.00,,,0.00,weatherlink.com 1.10,2013-09-28 20:03:00,
2013-09-28 16:18:00,77.9,54.0,30.00,SSE,152,14.0,14.0,43,0.00,,,0.00,weatherlink.com 1.10,2013-09-28 20:18:00,
2013-09-28 16:33:00,78.0,54.0,30.00,SSE,150,9.0,13.0,43,0.00,,,0.00,weatherlink.com 1.10,2013-09-28 20:33:00,
2013-09-28 16:48:00,78.1,54.0,29.99,WSW,248,4.0,13.0,43,0.00,,,0.00,weatherlink.com 1.10,2013-09-28 20:48:00,
2013-09-28 17:03:00,78.5,55.0,29.99,SSW,195,2.0,13.0,44,0.00,,,0.00,weatherlink.com 1.10,2013-09-28 21:03:00,
2013-09-28 17:18:00,78.2,54.0,29.98,SE,135,1.0,11.0,43,0.00,,,0.00,weatherlink.com 1.10,2013-09-28 21:18:00,
2013-09-28 17:33:00,77.9,54.0,29.98,SSE,153,9.0,11.0,43,0.00,,,0.00,weatherlink.com 1.10,2013-09-28 21:33:00,
2013-09-28 17:48:00,77.0,54.0,29.98,South,179,4.0,13.0,45,0.00,,,0.00,weatherlink.com 1.10,2013-09-28 21:48:00,
2013-09-28 18:03:00,75.7,54.0,29.98,SE,135,2.0,9.0,47,0.00,,,0.00,weatherlink.com 1.10,2013-09-28 22:03:00,
2013-09-28 18:18:00,74.7,54.0,29.98,SE,138,6.0,9.0,48,0.00,,,0.00,weatherlink.com 1.10,2013-09-28 22:18:00,
2013-09-28 18:33:00,73.6,54.0,29.98,SW,222,1.0,8.0,51,0.00,,,0.00,weatherlink.com 1.10,2013-09-28 22:33:00,
2013-09-28 18:48:00,72.8,54.0,29.99,SE,139,1.0,6.0,52,0.00,,,0.00,weatherlink.com 1.10,2013-09-28 22:48:00,
2013-09-28 19:03:00,73.1,54.0,29.98,SSW,195,4.0,10.0,52,0.00,,,0.00,weatherlink.com 1.10,2013-09-28 23:03:00,
2013-09-28 19:18:00,72.0,54.0,29.98,SSE,155,4.0,8.0,54,0.00,,,0.00,weatherlink.com 1.10,2013-09-28 23:18:00,
2013-09-28 19:33:00,71.2,55.0,29.98,SW,214,5.0,8.0,56,0.00,,,0.00,weatherlink.com 1.10,2013-09-28 23:33:00,
2013-09-28 19:48:00,70.5,54.0,29.98,SE,132,4.0,7.0,57,0.00,,,0.00,weatherlink.com 1.10,2013-09-28 23:48:00,
2013-09-28 20:03:00,69.9,54.0,29.98,SE,136,4.0,7.0,57,0.00,,,0.00,weatherlink.com 1.10,2013-09-29 00:03:00,
2013-09-28 20:18:00,69.6,54.0,29.98,South,169,8.0,11.0,57,0.00,,,0.00,weatherlink.com 1.10,2013-09-29 00:18:00,
2013-09-28 20:33:00,69.0,53.0,29.98,SSE,148,3.0,13.0,57,0.00,,,0.00,weatherlink.com 1.10,2013-09-29 00:33:00,
2013-09-28 20:48:00,68.6,53.0,29.98,ESE,110,2.0,13.0,57,0.00,,,0.00,weatherlink.com 1.10,2013-09-29 00:48:00,
2013-09-28 21:03:00,68.4,52.0,29.98,South,169,7.0,13.0,57,0.00,,,0.00,weatherlink.com 1.10,2013-09-29 01:03:00,
2013-09-28 21:18:00,68.0,52.0,29.97,ESE,105,6.0,11.0,58,0.00,,,0.00,weatherlink.com 1.10,2013-09-29 01:18:00,
2013-09-28 21:33:00,67.6,53.0,29.96,SSE,168,3.0,11.0,59,0.00,,,0.00,weatherlink.com 1.10,2013-09-29 01:33:00,
2013-09-28 21:49:00,67.1,53.0,29.96,SSW,210,4.0,10.0,60,0.00,,,0.00,weatherlink.com 1.10,2013-09-29 01:49:00,
2013-09-28 22:03:00,66.6,53.0,29.96,SE,135,3.0,11.0,61,0.00,,,0.00,weatherlink.com 1.10,2013-09-29 02:03:00,
2013-09-28 22:19:00,65.7,53.0,29.96,South,186,6.0,10.0,63,0.00,,,0.00,weatherlink.com 1.10,2013-09-29 02:19:00,
2013-09-28 22:34:00,64.9,53.0,29.96,SW,226,4.0,11.0,65,0.00,,,0.00,weatherlink.com 1.10,2013-09-29 02:34:00,
2013-09-28 22:49:00,64.3,53.0,29.95,South,188,5.0,10.0,66,0.00,,,0.00,weatherlink.com 1.10,2013-09-29 02:49:00,
2013-09-28 23:04:00,63.6,53.0,29.95,SSE,162,2.0,10.0,68,0.00,,,0.00,weatherlink.com 1.10,2013-09-29 03:04:00,
2013-09-28 23:19:00,63.0,53.0,29.95,SW,224,3.0,9.0,70,0.00,,,0.00,weatherlink.com 1.10,2013-09-29 03:19:00,
2013-09-28 23:34:00,62.6,53.0,29.95,SSE,148,4.0,10.0,72,0.00,,,0.00,weatherlink.com 1.10,2013-09-29 03:34:00,
2013-09-28 23:49:00,62.6,53.0,29.94,SSE,155,3.0,12.0,72,0.00,,,0.00,weatherlink.com 1.10,2013-09-29 03:49:00,